Global Triumph — V7DU5 — position and weather

sailwx.info

Track history (hours):
 
Tides and Currents Weather Stations Pressure Air Temp Water Temp Dewpoint Dewpoint Depression Visibility Wind Speed Wind Dir Waves Ship Positions

Global Triumph

Last reported at 2016-Jun-29 06:33 UTC. Time now 2016-Jul-01 13:35 UTC.
Position N 01°15' E 104°10'.

Length 225 m; draft 6.9 m.

Type: Cargo ship. MMSI: 538001709.

Date/timePositionNaut miles runAvg speedWind from/ knotsBaromVisibWave heightAir tempDewpointWater temp
2016-Jun-29 06:33N 01°15' E 104°10'1717.4
2016-Jun-29 05:33N 01°12' E 103°53'9 9.4
2016-Jun-29 04:33N 01°16' E 103°45'1 0.8
2016-Jun-29 03:29N 01°17' E 103°45'0 0.0
2016-Jun-29 02:29N 01°17' E 103°45'0 0.0
2016-Jun-29 01:32N 01°17' E 103°45'0 0.0
2016-Jun-29 00:23N 01°17' E 103°45'0 0.0
2016-Jun-28 23:29N 01°17' E 103°45'0 0.0
2016-Jun-28 22:29N 01°17' E 103°45'0 0.0
2016-Jun-28 21:29N 01°17' E 103°45'0 0.0
2016-Jun-28 20:23N 01°17' E 103°45'0 0.0
2016-Jun-28 19:29N 01°17' E 103°45'0 0.5
2016-Jun-28 18:33N 01°17' E 103°45'4 3.6
2016-Jun-28 17:33N 01°14' E 103°43'7 7.3
2016-Jun-28 16:33N 01°12' E 103°36'6416.1
2016-Jun-28 12:32N 01°43' E 102°39'1818.6
2016-Jun-28 11:33N 01°51' E 102°23'1818.5
2016-Jun-28 10:33N 02°01' E 102°07'  
Track history (hours):
 
Tides and Currents Weather Stations Pressure Air Temp Water Temp Dewpoint Dewpoint Depression Visibility Wind Speed Wind Dir Waves Ship Positions

Global Triumph

Last reported at 2016-Jun-29 06:33 UTC. Time now 2016-Jul-01 13:35 UTC.
Position N 01°15' E 104°10'.

Length 225 m; draft 6.9 m.

Type: Cargo ship. MMSI: 538001709.

Date/timePositionNaut miles runAvg speedWind from/ knotsBaromVisibWave heightAir tempDewpointWater temp
2016-Jun-29 06:33N 01°15' E 104°10'1717.4
2016-Jun-29 05:33N 01°12' E 103°53'9 9.4
2016-Jun-29 04:33N 01°16' E 103°45'1 0.8
2016-Jun-29 03:29N 01°17' E 103°45'0 0.0
2016-Jun-29 02:29N 01°17' E 103°45'0 0.0
2016-Jun-29 01:32N 01°17' E 103°45'0 0.0
2016-Jun-29 00:23N 01°17' E 103°45'0 0.0
2016-Jun-28 23:29N 01°17' E 103°45'0 0.0
2016-Jun-28 22:29N 01°17' E 103°45'0 0.0
2016-Jun-28 21:29N 01°17' E 103°45'0 0.0
2016-Jun-28 20:23N 01°17' E 103°45'0 0.0
2016-Jun-28 19:29N 01°17' E 103°45'0 0.5
2016-Jun-28 18:33N 01°17' E 103°45'4 3.6
2016-Jun-28 17:33N 01°14' E 103°43'7 7.3
2016-Jun-28 16:33N 01°12' E 103°36'6416.1
2016-Jun-28 12:32N 01°43' E 102°39'1818.6
2016-Jun-28 11:33N 01°51' E 102°23'1818.5
2016-Jun-28 10:33N 02°01' E 102°07'  

Dump ship's entire track history